Station Historical Data
Daily Summary for April 25, 2017 Units:  Both    English   Metric
« Previous Day
Next Day »
Daily Weekly Monthly Yearly Custom
  High: Low: Average:
Temperature: 65.3 °F /  18.5 °C 45.9 °F /  7.7 °C 55.3 °F /  12.9 °C
Dew Point: 55.8 °F /  13.2 °C 37.6 °F /  3.1 °C 48.3 °F /  9.1 °C
Humidity: 90% 64% 78%
Wind Speed: 10.0mph /  16.1km/h - 3.2mph /  5.1km/h
Wind Gust: 15.0mph /  24.1km/h - -
Wind- - ENE
Pressure: 30.03 in /  1016.8 hPa 29.83 in /  1010 hPa -
Precipitation: 0.36 in /  9.14 mm    
Historical Graphs
 
 
Tabular Data for April 25, 2017
Time Temperature Dew Point Pressure Wind Wind Speed Wind Gust Humidity Rainfall Rate (Hourly)
00:00 49.6 °F /  9.8 °C 37.9 °F /  3.3 °C 30.03in /  1016.8hPa ENE 1.0mph /  1.6km/h 7.0mph /  11.3km/h 64% 0.00in /  0mm
00:05 49.5 °F /  9.7 °C 37.8 °F /  3.2 °C 30.03in /  1016.8hPa NE 5.0mph /  8km/h 6.0mph /  9.7km/h 64% 0.00in /  0mm
00:10 49.4 °F /  9.7 °C 37.7 °F /  3.2 °C 30.03in /  1016.8hPa ENE 3.0mph /  4.8km/h 8.0mph /  12.9km/h 64% 0.00in /  0mm
00:15 49.3 °F /  9.6 °C 38.0 °F /  3.3 °C 30.03in /  1016.8hPa Calm   6.0mph /  9.7km/h 65% 0.00in /  0mm
00:20 49.3 °F /  9.6 °C 38.0 °F /  3.3 °C 30.03in /  1016.8hPa NNE 1.0mph /  1.6km/h 5.0mph /  8km/h 65% 0.00in /  0mm
00:25 49.3 °F /  9.6 °C 38.0 °F /  3.3 °C 30.03in /  1016.8hPa East 2.0mph /  3.2km/h 6.0mph /  9.7km/h 65% 0.00in /  0mm
00:30 48.8 °F /  9.3 °C 37.9 °F /  3.3 °C 30.03in /  1016.8hPa ENE 2.0mph /  3.2km/h 6.0mph /  9.7km/h 66% 0.00in /  0mm
00:35 48.3 °F /  9.1 °C 37.8 °F /  3.2 °C 30.03in /  1016.8hPa ENE 1.0mph /  1.6km/h 4.0mph /  6.4km/h 67% 0.00in /  0mm
00:40 48.0 °F /  8.9 °C 37.6 °F /  3.1 °C 30.03in /  1016.8hPa ENE 1.0mph /  1.6km/h 4.0mph /  6.4km/h 67% 0.00in /  0mm
00:45 47.8 °F /  8.8 °C 37.7 °F /  3.2 °C 30.03in /  1016.8hPa ENE 1.0mph /  1.6km/h 3.0mph /  4.8km/h 68% 0.00in /  0mm
00:50 47.8 °F /  8.8 °C 37.7 °F /  3.2 °C 30.03in /  1016.8hPa ENE 2.0mph /  3.2km/h 6.0mph /  9.7km/h 68% 0.00in /  0mm
00:55 48.0 °F /  8.9 °C 37.9 °F /  3.3 °C 30.03in /  1016.8hPa NE 1.0mph /  1.6km/h 7.0mph /  11.3km/h 68% 0.00in /  0mm
01:00 48.0 °F /  8.9 °C 37.9 °F /  3.3 °C 30.03in /  1016.8hPa Calm   3.0mph /  4.8km/h 68% 0.00in /  0mm
01:05 48.0 °F /  8.9 °C 37.9 °F /  3.3 °C 30.03in /  1016.8hPa NE 2.0mph /  3.2km/h 6.0mph /  9.7km/h 68% 0.00in /  0mm
01:10 47.9 °F /  8.8 °C 38.2 °F /  3.4 °C 30.03in /  1016.8hPa ENE 2.0mph /  3.2km/h 6.0mph /  9.7km/h 69% 0.00in /  0mm
01:15 47.6 °F /  8.7 °C 37.9 °F /  3.3 °C 30.03in /  1016.8hPa ENE 2.0mph /  3.2km/h 5.0mph /  8km/h 69% 0.00in /  0mm
01:20 47.6 °F /  8.7 °C 37.9 °F /  3.3 °C 30.03in /  1016.8hPa ENE 2.0mph /  3.2km/h 6.0mph /  9.7km/h 69% 0.00in /  0mm
01:25 47.6 °F /  8.7 °C 38.3 °F /  3.5 °C 30.03in /  1016.8hPa East 5.0mph /  8km/h 7.0mph /  11.3km/h 70% 0.00in /  0mm
01:30 47.6 °F /  8.7 °C 38.3 °F /  3.5 °C 30.03in /  1016.8hPa ENE 1.0mph /  1.6km/h 7.0mph /  11.3km/h 70% 0.00in /  0mm
01:35 47.4 °F /  8.6 °C 38.1 °F /  3.4 °C 30.03in /  1016.8hPa ENE 3.0mph /  4.8km/h 7.0mph /  11.3km/h 70% 0.00in /  0mm
01:40 47.1 °F /  8.4 °C 37.8 °F /  3.2 °C 30.02in /  1016.5hPa NE 1.0mph /  1.6km/h 4.0mph /  6.4km/h 70% 0.00in /  0mm
01:45 46.9 °F /  8.3 °C 38.0 °F /  3.3 °C 30.02in /  1016.5hPa NE 2.0mph /  3.2km/h 5.0mph /  8km/h 71% 0.00in /  0mm
01:50 46.8 °F /  8.2 °C 37.9 °F /  3.3 °C 30.02in /  1016.5hPa ENE 2.0mph /  3.2km/h 4.0mph /  6.4km/h 71% 0.00in /  0mm
01:55 46.6 °F /  8.1 °C 38.1 °F /  3.4 °C 30.02in /  1016.5hPa NE 3.0mph /  4.8km/h 5.0mph /  8km/h 72% 0.00in /  0mm
02:00 46.7 °F /  8.2 °C 38.1 °F /  3.4 °C 30.02in /  1016.5hPa NE 1.0mph /  1.6km/h 6.0mph /  9.7km/h 72% 0.00in /  0mm
02:05 46.6 °F /  8.1 °C 38.1 °F /  3.4 °C 30.01in /  1016.1hPa NE 2.0mph /  3.2km/h 6.0mph /  9.7km/h 72% 0.00in /  0mm
02:10 46.5 °F /  8.1 °C 38.0 °F /  3.3 °C 30.01in /  1016.1hPa NE 2.0mph /  3.2km/h 4.0mph /  6.4km/h 72% 0.00in /  0mm
02:15 46.4 °F /  8 °C 37.9 °F /  3.3 °C 30.01in /  1016.1hPa ENE 1.0mph /  1.6km/h 3.0mph /  4.8km/h 72% 0.00in /  0mm
02:20 46.4 °F /  8 °C 37.9 °F /  3.3 °C 30.01in /  1016.1hPa ENE 2.0mph /  3.2km/h 4.0mph /  6.4km/h 72% 0.00in /  0mm
02:25 46.5 °F /  8.1 °C 38.0 °F /  3.3 °C 30.01in /  1016.1hPa East 2.0mph /  3.2km/h 5.0mph /  8km/h 72% 0.00in /  0mm
02:35 46.3 °F /  7.9 °C 38.1 °F /  3.4 °C 30.00in /  1015.8hPa East 2.0mph /  3.2km/h 5.0mph /  8km/h 73% 0.00in /  0mm
02:40 46.2 °F /  7.9 °C 38.0 °F /  3.3 °C 30.00in /  1015.8hPa ENE 1.0mph /  1.6km/h 5.0mph /  8km/h 73% 0.00in /  0mm
02:45 46.1 °F /  7.8 °C 37.9 °F /  3.3 °C 30.00in /  1015.8hPa East 2.0mph /  3.2km/h 5.0mph /  8km/h 73% 0.00in /  0mm
02:50 46.0 °F /  7.8 °C 38.2 °F /  3.4 °C 30.00in /  1015.8hPa ENE 3.0mph /  4.8km/h 3.0mph /  4.8km/h 74% 0.00in /  0mm
02:55 45.9 °F /  7.7 °C 38.1 °F /  3.4 °C 30.00in /  1015.8hPa East 2.0mph /  3.2km/h 4.0mph /  6.4km/h 74% 0.00in /  0mm
03:00 46.0 °F /  7.8 °C 38.2 °F /  3.4 °C 29.99in /  1015.5hPa ENE 2.0mph /  3.2km/h 5.0mph /  8km/h 74% 0.00in /  0mm
03:05 46.1 °F /  7.8 °C 38.3 °F /  3.5 °C 29.99in /  1015.5hPa ENE 2.0mph /  3.2km/h 5.0mph /  8km/h 74% 0.00in /  0mm
03:10 46.3 °F /  7.9 °C 38.5 °F /  3.6 °C 29.99in /  1015.5hPa ENE 2.0mph /  3.2km/h 5.0mph /  8km/h 74% 0.00in /  0mm
03:15 46.5 °F /  8.1 °C 38.7 °F /  3.7 °C 29.99in /  1015.5hPa East 2.0mph /  3.2km/h 3.0mph /  4.8km/h 74% 0.00in /  0mm
03:20 46.7 °F /  8.2 °C 38.9 °F /  3.8 °C 29.99in /  1015.5hPa East 1.0mph /  1.6km/h 3.0mph /  4.8km/h 74% 0.00in /  0mm
03:25 46.9 °F /  8.3 °C 39.0 °F /  3.9 °C 29.99in /  1015.5hPa East 1.0mph /  1.6km/h 2.0mph /  3.2km/h 74% 0.00in /  0mm
03:35 47.2 °F /  8.4 °C 39.3 °F /  4.1 °C 29.98in /  1015.1hPa East 1.0mph /  1.6km/h 3.0mph /  4.8km/h 74% 0.00in /  0mm
03:40 47.3 °F /  8.5 °C 39.1 °F /  3.9 °C 29.98in /  1015.1hPa East 1.0mph /  1.6km/h 3.0mph /  4.8km/h 73% 0.00in /  0mm
03:45 47.4 °F /  8.6 °C 39.5 °F /  4.2 °C 29.98in /  1015.1hPa Calm   2.0mph /  3.2km/h 74% 0.00in /  0mm
03:55 47.6 °F /  8.7 °C 39.4 °F /  4.1 °C 29.98in /  1015.1hPa Calm   3.0mph /  4.8km/h 73% 0.00in /  0mm
04:00 47.7 °F /  8.7 °C 39.5 °F /  4.2 °C 29.98in /  1015.1hPa East 1.0mph /  1.6km/h 5.0mph /  8km/h 73% 0.00in /  0mm
04:05 47.8 °F /  8.8 °C 39.6 °F /  4.2 °C 29.98in /  1015.1hPa East 1.0mph /  1.6km/h 5.0mph /  8km/h 73% 0.00in /  0mm
04:10 47.9 °F /  8.8 °C 39.7 °F /  4.3 °C 29.97in /  1014.8hPa ENE 2.0mph /  3.2km/h 5.0mph /  8km/h 73% 0.00in /  0mm
04:15 48.1 °F /  8.9 °C 39.9 °F /  4.4 °C 29.97in /  1014.8hPa East 2.0mph /  3.2km/h 5.0mph /  8km/h 73% 0.00in /  0mm
04:20 48.3 °F /  9.1 °C 40.0 °F /  4.4 °C 29.97in /  1014.8hPa East 2.0mph /  3.2km/h 5.0mph /  8km/h 73% 0.00in /  0mm
04:25 48.6 °F /  9.2 °C 40.0 °F /  4.4 °C 29.97in /  1014.8hPa East 3.0mph /  4.8km/h 3.0mph /  4.8km/h 72% 0.00in /  0mm
04:30 48.8 °F /  9.3 °C 40.5 °F /  4.7 °C 29.97in /  1014.8hPa Calm   3.0mph /  4.8km/h 73% 0.00in /  0mm
04:35 49.0 °F /  9.4 °C 40.4 °F /  4.7 °C 29.97in /  1014.8hPa ENE 2.0mph /  3.2km/h 6.0mph /  9.7km/h 72% 0.00in /  0mm
04:40 49.1 °F /  9.5 °C 40.5 °F /  4.7 °C 29.97in /  1014.8hPa NE 3.0mph /  4.8km/h 7.0mph /  11.3km/h 72% 0.00in /  0mm
04:45 49.3 °F /  9.6 °C 40.7 °F /  4.8 °C 29.97in /  1014.8hPa ENE 3.0mph /  4.8km/h 7.0mph /  11.3km/h 72% 0.00in /  0mm
04:50 49.4 °F /  9.7 °C 40.7 °F /  4.8 °C 29.97in /  1014.8hPa NE 3.0mph /  4.8km/h 5.0mph /  8km/h 72% 0.00in /  0mm
04:55 49.6 °F /  9.8 °C 40.9 °F /  4.9 °C 29.97in /  1014.8hPa NE 3.0mph /  4.8km/h 6.0mph /  9.7km/h 72% 0.00in /  0mm
05:05 50.0 °F /  10 °C 41.3 °F /  5.2 °C 29.97in /  1014.8hPa NE 3.0mph /  4.8km/h 5.0mph /  8km/h 72% 0.00in /  0mm
05:10 50.2 °F /  10.1 °C 41.2 °F /  5.1 °C 29.97in /  1014.8hPa NE 2.0mph /  3.2km/h 8.0mph /  12.9km/h 71% 0.00in /  0mm
05:15 50.5 °F /  10.3 °C 41.4 °F /  5.2 °C 29.97in /  1014.8hPa ENE 2.0mph /  3.2km/h 7.0mph /  11.3km/h 71% 0.00in /  0mm
05:20 50.6 °F /  10.3 °C 41.5 °F /  5.3 °C 29.97in /  1014.8hPa ENE 3.0mph /  4.8km/h 6.0mph /  9.7km/h 71% 0.00in /  0mm
05:25 50.7 °F /  10.4 °C 41.6 °F /  5.3 °C 29.97in /  1014.8hPa NE 3.0mph /  4.8km/h 7.0mph /  11.3km/h 71% 0.00in /  0mm
05:30 50.9 °F /  10.5 °C 41.5 °F /  5.3 °C 29.97in /  1014.8hPa NE 3.0mph /  4.8km/h 7.0mph /  11.3km/h 70% 0.00in /  0mm
05:40 51.1 °F /  10.6 °C 41.7 °F /  5.4 °C 29.97in /  1014.8hPa NE 3.0mph /  4.8km/h 6.0mph /  9.7km/h 70% 0.00in /  0mm
05:45 51.2 °F /  10.7 °C 41.7 °F /  5.4 °C 29.97in /  1014.8hPa NE 3.0mph /  4.8km/h 8.0mph /  12.9km/h 70% 0.00in /  0mm
05:50 51.3 °F /  10.7 °C 42.6 °F /  5.9 °C 29.97in /  1014.8hPa NE 3.0mph /  4.8km/h 8.0mph /  12.9km/h 72% 0.00in /  0mm
05:55 51.1 °F /  10.6 °C 42.7 °F /  5.9 °C 29.97in /  1014.8hPa NE 1.0mph /  1.6km/h 5.0mph /  8km/h 73% 0.00in /  0mm
06:00 50.6 °F /  10.3 °C 43.0 °F /  6.1 °C 29.97in /  1014.8hPa NE 4.0mph /  6.4km/h 4.0mph /  6.4km/h 75% 0.01in /  0.25mm
06:05 50.3 °F /  10.2 °C 43.4 °F /  6.3 °C 29.97in /  1014.8hPa NE 2.0mph /  3.2km/h 5.0mph /  8km/h 77% 0.01in /  0.25mm
06:10 50.1 °F /  10.1 °C 43.5 °F /  6.4 °C 29.98in /  1015.1hPa NE 2.0mph /  3.2km/h 5.0mph /  8km/h 78% 0.02in /  0.51mm
06:15 49.8 °F /  9.9 °C 43.9 °F /  6.6 °C 29.98in /  1015.1hPa NE 1.0mph /  1.6km/h 3.0mph /  4.8km/h 80% 0.02in /  0.51mm
06:20 49.6 °F /  9.8 °C 43.4 °F /  6.3 °C 29.98in /  1015.1hPa Calm   3.0mph /  4.8km/h 79% 0.02in /  0.51mm
06:25 49.6 °F /  9.8 °C 43.7 °F /  6.5 °C 29.98in /  1015.1hPa ESE 2.0mph /  3.2km/h 5.0mph /  8km/h 80% 0.03in /  0.76mm
06:30 49.5 °F /  9.7 °C 43.6 °F /  6.4 °C 29.98in /  1015.1hPa ENE 2.0mph /  3.2km/h 5.0mph /  8km/h 80% 0.03in /  0.76mm
06:35 49.4 °F /  9.7 °C 43.5 °F /  6.4 °C 29.99in /  1015.5hPa ENE 1.0mph /  1.6km/h 5.0mph /  8km/h 80% 0.05in /  1.27mm
06:40 49.2 °F /  9.6 °C 43.6 °F /  6.4 °C 29.99in /  1015.5hPa ENE 2.0mph /  3.2km/h 5.0mph /  8km/h 81% 0.06in /  1.52mm
06:45 48.9 °F /  9.4 °C 44.0 °F /  6.7 °C 29.99in /  1015.5hPa East 2.0mph /  3.2km/h 5.0mph /  8km/h 83% 0.07in /  1.78mm
06:50 48.9 °F /  9.4 °C 44.0 °F /  6.7 °C 29.99in /  1015.5hPa East 2.0mph /  3.2km/h 5.0mph /  8km/h 83% 0.07in /  1.78mm
06:55 48.9 °F /  9.4 °C 44.3 °F /  6.8 °C 29.99in /  1015.5hPa NE 1.0mph /  1.6km/h 4.0mph /  6.4km/h 84% 0.08in /  2.03mm
07:00 49.0 °F /  9.4 °C 44.4 °F /  6.9 °C 29.99in /  1015.5hPa NE 1.0mph /  1.6km/h 5.0mph /  8km/h 84% 0.07in /  1.78mm
07:05 49.1 °F /  9.5 °C 44.5 °F /  6.9 °C 29.99in /  1015.5hPa NE 2.0mph /  3.2km/h 5.0mph /  8km/h 84% 0.08in /  2.03mm
07:10 49.1 °F /  9.5 °C 44.8 °F /  7.1 °C 29.99in /  1015.5hPa NE 2.0mph /  3.2km/h 5.0mph /  8km/h 85% 0.08in /  2.03mm
07:15 48.9 °F /  9.4 °C 44.6 °F /  7 °C 29.99in /  1015.5hPa NE 3.0mph /  4.8km/h 7.0mph /  11.3km/h 85% 0.08in /  2.03mm
07:20 48.7 °F /  9.3 °C 44.4 °F /  6.9 °C 29.99in /  1015.5hPa NE 4.0mph /  6.4km/h 8.0mph /  12.9km/h 85% 0.09in /  2.29mm
07:25 48.6 °F /  9.2 °C 44.6 °F /  7 °C 29.99in /  1015.5hPa NE 4.0mph /  6.4km/h 8.0mph /  12.9km/h 86% 0.09in /  2.29mm
07:30 48.5 °F /  9.2 °C 44.5 °F /  6.9 °C 29.99in /  1015.5hPa NE 4.0mph /  6.4km/h 9.0mph /  14.5km/h 86% 0.10in /  2.54mm
07:35 48.3 °F /  9.1 °C 44.3 °F /  6.8 °C 29.99in /  1015.5hPa NE 4.0mph /  6.4km/h 10.0mph /  16.1km/h 86% 0.09in /  2.29mm
07:40 48.3 °F /  9.1 °C 44.6 °F /  7 °C 29.99in /  1015.5hPa ENE 3.0mph /  4.8km/h 8.0mph /  12.9km/h 87% 0.09in /  2.29mm
07:45 48.3 °F /  9.1 °C 44.6 °F /  7 °C 29.99in /  1015.5hPa ENE 3.0mph /  4.8km/h 7.0mph /  11.3km/h 87% 0.09in /  2.29mm
07:50 48.3 °F /  9.1 °C 44.9 °F /  7.2 °C 29.99in /  1015.5hPa NE 3.0mph /  4.8km/h 7.0mph /  11.3km/h 88% 0.11in /  2.79mm
07:55 48.3 °F /  9.1 °C 44.9 °F /  7.2 °C 30.00in /  1015.8hPa NE 4.0mph /  6.4km/h 8.0mph /  12.9km/h 88% 0.10in /  2.54mm
08:00 48.3 °F /  9.1 °C 44.9 °F /  7.2 °C 29.99in /  1015.5hPa NE 4.0mph /  6.4km/h 7.0mph /  11.3km/h 88% 0.13in /  3.3mm
08:05 48.3 °F /  9.1 °C 44.9 °F /  7.2 °C 30.00in /  1015.8hPa NE 4.0mph /  6.4km/h 8.0mph /  12.9km/h 88% 0.16in /  4.06mm
08:10 48.1 °F /  8.9 °C 45.0 °F /  7.2 °C 30.00in /  1015.8hPa NE 4.0mph /  6.4km/h 8.0mph /  12.9km/h 89% 0.17in /  4.32mm
08:15 48.3 °F /  9.1 °C 45.2 °F /  7.3 °C 30.00in /  1015.8hPa NE 4.0mph /  6.4km/h 9.0mph /  14.5km/h 89% 0.17in /  4.32mm
08:20 48.3 °F /  9.1 °C 45.2 °F /  7.3 °C 30.00in /  1015.8hPa NE 4.0mph /  6.4km/h 9.0mph /  14.5km/h 89% 0.17in /  4.32mm
08:25 48.3 °F /  9.1 °C 45.2 °F /  7.3 °C 30.00in /  1015.8hPa NE 4.0mph /  6.4km/h 8.0mph /  12.9km/h 89% 0.17in /  4.32mm
08:30 48.3 °F /  9.1 °C 45.2 °F /  7.3 °C 30.00in /  1015.8hPa NE 5.0mph /  8km/h 9.0mph /  14.5km/h 89% 0.17in /  4.32mm
08:35 48.3 °F /  9.1 °C 45.2 °F /  7.3 °C 30.00in /  1015.8hPa NE 4.0mph /  6.4km/h 8.0mph /  12.9km/h 89% 0.17in /  4.32mm
08:40 48.3 °F /  9.1 °C 45.2 °F /  7.3 °C 30.00in /  1015.8hPa NE 6.0mph /  9.7km/h 9.0mph /  14.5km/h 89% 0.16in /  4.06mm
08:45 48.4 °F /  9.1 °C 45.6 °F /  7.6 °C 30.00in /  1015.8hPa NE 2.0mph /  3.2km/h 7.0mph /  11.3km/h 90% 0.15in /  3.81mm
08:50 48.6 °F /  9.2 °C 45.8 °F /  7.7 °C 30.00in /  1015.8hPa NE 2.0mph /  3.2km/h 9.0mph /  14.5km/h 90% 0.14in /  3.56mm
08:55 48.6 °F /  9.2 °C 45.8 °F /  7.7 °C 30.00in /  1015.8hPa NE 5.0mph /  8km/h 7.0mph /  11.3km/h 90% 0.14in /  3.56mm
09:00 48.6 °F /  9.2 °C 45.8 °F /  7.7 °C 30.00in /  1015.8hPa NE 3.0mph /  4.8km/h 5.0mph /  8km/h 90% 0.11in /  2.79mm
09:05 48.6 °F /  9.2 °C 45.8 °F /  7.7 °C 30.00in /  1015.8hPa NE 3.0mph /  4.8km/h 8.0mph /  12.9km/h 90% 0.08in /  2.03mm
09:10 48.8 °F /  9.3 °C 46.0 °F /  7.8 °C 30.00in /  1015.8hPa NE 3.0mph /  4.8km/h 8.0mph /  12.9km/h 90% 0.06in /  1.52mm
09:15 48.9 °F /  9.4 °C 46.1 °F /  7.8 °C 30.00in /  1015.8hPa NE 3.0mph /  4.8km/h 8.0mph /  12.9km/h 90% 0.05in /  1.27mm
09:20 49.1 °F /  9.5 °C 46.3 °F /  7.9 °C 30.00in /  1015.8hPa NE 4.0mph /  6.4km/h 8.0mph /  12.9km/h 90% 0.04in /  1.02mm
09:25 49.2 °F /  9.6 °C 46.4 °F /  8 °C 30.00in /  1015.8hPa NE 2.0mph /  3.2km/h 7.0mph /  11.3km/h 90% 0.04in /  1.02mm
09:30 49.4 °F /  9.7 °C 46.6 °F /  8.1 °C 30.00in /  1015.8hPa NE 5.0mph /  8km/h 7.0mph /  11.3km/h 90% 0.03in /  0.76mm
09:35 49.5 °F /  9.7 °C 46.7 °F /  8.2 °C 30.00in /  1015.8hPa NE 4.0mph /  6.4km/h 8.0mph /  12.9km/h 90% 0.02in /  0.51mm
09:40 49.6 °F /  9.8 °C 46.8 °F /  8.2 °C 30.00in /  1015.8hPa NE 4.0mph /  6.4km/h 8.0mph /  12.9km/h 90% 0.02in /  0.51mm
09:45 49.9 °F /  9.9 °C 47.1 °F /  8.4 °C 30.00in /  1015.8hPa NE 4.0mph /  6.4km/h 9.0mph /  14.5km/h 90% 0.01in /  0.25mm
09:50 50.0 °F /  10 °C 47.2 °F /  8.4 °C 30.00in /  1015.8hPa NE 4.0mph /  6.4km/h 9.0mph /  14.5km/h 90% 0.01in /  0.25mm
09:55 50.2 °F /  10.1 °C 47.1 °F /  8.4 °C 30.00in /  1015.8hPa NE 4.0mph /  6.4km/h 9.0mph /  14.5km/h 89% 0.01in /  0.25mm
10:00 50.4 °F /  10.2 °C 47.3 °F /  8.5 °C 30.00in /  1015.8hPa NE 5.0mph /  8km/h 7.0mph /  11.3km/h 89% 0.01in /  0.25mm
10:05 50.5 °F /  10.3 °C 47.4 °F /  8.6 °C 29.99in /  1015.5hPa NE 4.0mph /  6.4km/h 7.0mph /  11.3km/h 89% 0.00in /  0mm
10:10 50.7 °F /  10.4 °C 47.6 °F /  8.7 °C 29.99in /  1015.5hPa NE 7.0mph /  11.3km/h 7.0mph /  11.3km/h 89% 0.00in /  0mm
10:15 50.8 °F /  10.4 °C 47.7 °F /  8.7 °C 29.99in /  1015.5hPa NE 6.0mph /  9.7km/h 8.0mph /  12.9km/h 89% 0.00in /  0mm
10:20 51.0 °F /  10.6 °C 47.9 °F /  8.8 °C 29.99in /  1015.5hPa ENE 7.0mph /  11.3km/h 7.0mph /  11.3km/h 89% 0.00in /  0mm
10:25 51.3 °F /  10.7 °C 48.2 °F /  9 °C 29.99in /  1015.5hPa North 6.0mph /  9.7km/h 9.0mph /  14.5km/h 89% 0.00in /  0mm
10:30 51.4 °F /  10.8 °C 48.0 °F /  8.9 °C 29.99in /  1015.5hPa ENE 5.0mph /  8km/h 8.0mph /  12.9km/h 88% 0.01in /  0.25mm
10:35 51.6 °F /  10.9 °C 48.2 °F /  9 °C 29.99in /  1015.5hPa NE 4.0mph /  6.4km/h 8.0mph /  12.9km/h 88% 0.01in /  0.25mm
10:40 51.8 °F /  11 °C 48.4 °F /  9.1 °C 29.99in /  1015.5hPa ENE 4.0mph /  6.4km/h 8.0mph /  12.9km/h 88% 0.01in /  0.25mm
10:45 52.1 °F /  11.2 °C 48.7 °F /  9.3 °C 29.99in /  1015.5hPa NE 3.0mph /  4.8km/h 7.0mph /  11.3km/h 88% 0.01in /  0.25mm
10:50 52.1 °F /  11.2 °C 48.7 °F /  9.3 °C 29.99in /  1015.5hPa NE 3.0mph /  4.8km/h 7.0mph /  11.3km/h 88% 0.01in /  0.25mm
10:55 52.3 °F /  11.3 °C 49.2 °F /  9.6 °C 29.99in /  1015.5hPa ENE 3.0mph /  4.8km/h 7.0mph /  11.3km/h 89% 0.01in /  0.25mm
11:00 52.3 °F /  11.3 °C 48.9 °F /  9.4 °C 29.99in /  1015.5hPa ENE 3.0mph /  4.8km/h 7.0mph /  11.3km/h 88% 0.01in /  0.25mm
11:10 52.7 °F /  11.5 °C 49.5 °F /  9.7 °C 29.99in /  1015.5hPa NE 3.0mph /  4.8km/h 7.0mph /  11.3km/h 89% 0.01in /  0.25mm
11:15 52.9 °F /  11.6 °C 49.4 °F /  9.7 °C 29.99in /  1015.5hPa ENE 2.0mph /  3.2km/h 6.0mph /  9.7km/h 88% 0.01in /  0.25mm
11:20 53.1 °F /  11.7 °C 49.6 °F /  9.8 °C 29.99in /  1015.5hPa NE 3.0mph /  4.8km/h 7.0mph /  11.3km/h 88% 0.01in /  0.25mm
11:25 53.2 °F /  11.8 °C 49.7 °F /  9.8 °C 29.99in /  1015.5hPa NE 4.0mph /  6.4km/h 7.0mph /  11.3km/h 88% 0.01in /  0.25mm
11:30 53.3 °F /  11.8 °C 49.8 °F /  9.9 °C 29.98in /  1015.1hPa NE 4.0mph /  6.4km/h 7.0mph /  11.3km/h 88% 0.00in /  0mm
11:35 53.4 °F /  11.9 °C 49.9 °F /  9.9 °C 29.98in /  1015.1hPa NE 4.0mph /  6.4km/h 7.0mph /  11.3km/h 88% 0.00in /  0mm
11:40 53.8 °F /  12.1 °C 50.3 °F /  10.2 °C 29.98in /  1015.1hPa NE 4.0mph /  6.4km/h 7.0mph /  11.3km/h 88% 0.00in /  0mm
11:45 54.0 °F /  12.2 °C 50.5 °F /  10.3 °C 29.98in /  1015.1hPa NE 3.0mph /  4.8km/h 5.0mph /  8km/h 88% 0.01in /  0.25mm
11:50 54.4 °F /  12.4 °C 51.2 °F /  10.7 °C 29.98in /  1015.1hPa ENE 3.0mph /  4.8km/h 7.0mph /  11.3km/h 89% 0.01in /  0.25mm
11:55 54.4 °F /  12.4 °C 50.9 °F /  10.5 °C 29.98in /  1015.1hPa ENE 3.0mph /  4.8km/h 7.0mph /  11.3km/h 88% 0.01in /  0.25mm
12:00 54.7 °F /  12.6 °C 51.2 °F /  10.7 °C 29.98in /  1015.1hPa NE 3.0mph /  4.8km/h 7.0mph /  11.3km/h 88% 0.01in /  0.25mm
12:05 55.2 °F /  12.9 °C 52.0 °F /  11.1 °C 29.97in /  1014.8hPa NE 3.0mph /  4.8km/h 7.0mph /  11.3km/h 89% 0.01in /  0.25mm
12:10 55.2 °F /  12.9 °C 51.7 °F /  10.9 °C 29.97in /  1014.8hPa NE 3.0mph /  4.8km/h 5.0mph /  8km/h 88% 0.01in /  0.25mm
12:15 55.4 °F /  13 °C 51.9 °F /  11.1 °C 29.97in /  1014.8hPa ENE 8.0mph /  12.9km/h 8.0mph /  12.9km/h 88% 0.01in /  0.25mm
12:20 55.5 °F /  13.1 °C 52.0 °F /  11.1 °C 29.97in /  1014.8hPa NE 4.0mph /  6.4km/h 8.0mph /  12.9km/h 88% 0.01in /  0.25mm
12:25 55.5 °F /  13.1 °C 52.0 °F /  11.1 °C 29.97in /  1014.8hPa NE 6.0mph /  9.7km/h 7.0mph /  11.3km/h 88% 0.01in /  0.25mm
12:30 55.9 °F /  13.3 °C 52.4 °F /  11.3 °C 29.96in /  1014.4hPa ENE 5.0mph /  8km/h 6.0mph /  9.7km/h 88% 0.01in /  0.25mm
12:35 55.8 °F /  13.2 °C 52.0 °F /  11.1 °C 29.96in /  1014.4hPa ENE 4.0mph /  6.4km/h 6.0mph /  9.7km/h 87% 0.01in /  0.25mm
12:40 56.2 °F /  13.4 °C 52.7 °F /  11.5 °C 29.96in /  1014.4hPa East 3.0mph /  4.8km/h 6.0mph /  9.7km/h 88% 0.01in /  0.25mm
12:45 56.5 °F /  13.6 °C 53.0 °F /  11.7 °C 29.96in /  1014.4hPa East 2.0mph /  3.2km/h 6.0mph /  9.7km/h 88% 0.00in /  0mm
12:50 56.5 °F /  13.6 °C 52.4 °F /  11.3 °C 29.95in /  1014.1hPa East 3.0mph /  4.8km/h 8.0mph /  12.9km/h 86% 0.00in /  0mm
12:55 56.6 °F /  13.7 °C 52.5 °F /  11.4 °C 29.95in /  1014.1hPa ESE 2.0mph /  3.2km/h 7.0mph /  11.3km/h 86% 0.00in /  0mm
13:05 56.6 °F /  13.7 °C 52.1 °F /  11.2 °C 29.95in /  1014.1hPa East 2.0mph /  3.2km/h 8.0mph /  12.9km/h 85% 0.01in /  0.25mm
13:10 56.6 °F /  13.7 °C 52.1 °F /  11.2 °C 29.95in /  1014.1hPa East 3.0mph /  4.8km/h 8.0mph /  12.9km/h 85% 0.01in /  0.25mm
13:15 56.9 °F /  13.8 °C 52.8 °F /  11.6 °C 29.94in /  1013.8hPa East 3.0mph /  4.8km/h 8.0mph /  12.9km/h 86% 0.01in /  0.25mm
13:20 56.9 °F /  13.8 °C 52.1 °F /  11.2 °C 29.94in /  1013.8hPa East 3.0mph /  4.8km/h 8.0mph /  12.9km/h 84% 0.01in /  0.25mm
13:25 57.1 °F /  13.9 °C 52.6 °F /  11.4 °C 29.93in /  1013.4hPa East 3.0mph /  4.8km/h 8.0mph /  12.9km/h 85% 0.01in /  0.25mm
13:30 57.5 °F /  14.2 °C 52.7 °F /  11.5 °C 29.93in /  1013.4hPa ESE 2.0mph /  3.2km/h 8.0mph /  12.9km/h 84% 0.01in /  0.25mm
13:35 57.9 °F /  14.4 °C 53.1 °F /  11.7 °C 29.93in /  1013.4hPa East 2.0mph /  3.2km/h 7.0mph /  11.3km/h 84% 0.01in /  0.25mm
13:40 58.1 °F /  14.5 °C 53.3 °F /  11.8 °C 29.93in /  1013.4hPa NE 2.0mph /  3.2km/h 5.0mph /  8km/h 84% 0.01in /  0.25mm
13:45 58.5 °F /  14.7 °C 53.4 °F /  11.9 °C 29.93in /  1013.4hPa ENE 3.0mph /  4.8km/h 8.0mph /  12.9km/h 83% 0.01in /  0.25mm
13:50 58.9 °F /  14.9 °C 53.7 °F /  12.1 °C 29.92in /  1013.1hPa ENE 1.0mph /  1.6km/h 7.0mph /  11.3km/h 83% 0.01in /  0.25mm
13:55 59.2 °F /  15.1 °C 53.7 °F /  12.1 °C 29.93in /  1013.4hPa ESE 5.0mph /  8km/h 10.0mph /  16.1km/h 82% 0.01in /  0.25mm
14:00 59.5 °F /  15.3 °C 54.0 °F /  12.2 °C 29.92in /  1013.1hPa East 7.0mph /  11.3km/h 9.0mph /  14.5km/h 82% 0.01in /  0.25mm
14:05 59.8 °F /  15.4 °C 54.0 °F /  12.2 °C 29.92in /  1013.1hPa ENE 4.0mph /  6.4km/h 8.0mph /  12.9km/h 81% 0.00in /  0mm
14:10 60.0 °F /  15.6 °C 53.8 °F /  12.1 °C 29.92in /  1013.1hPa NE 4.0mph /  6.4km/h 9.0mph /  14.5km/h 80% 0.00in /  0mm
14:15 60.3 °F /  15.7 °C 54.4 °F /  12.4 °C 29.92in /  1013.1hPa ENE 4.0mph /  6.4km/h 9.0mph /  14.5km/h 81% 0.00in /  0mm
14:20 60.4 °F /  15.8 °C 54.5 °F /  12.5 °C 29.92in /  1013.1hPa ENE 3.0mph /  4.8km/h 8.0mph /  12.9km/h 81% 0.00in /  0mm
14:25 60.7 °F /  15.9 °C 54.5 °F /  12.5 °C 29.91in /  1012.8hPa ENE 3.0mph /  4.8km/h 9.0mph /  14.5km/h 80% 0.00in /  0mm
14:30 60.7 °F /  15.9 °C 54.5 °F /  12.5 °C 29.91in /  1012.8hPa ENE 4.0mph /  6.4km/h 9.0mph /  14.5km/h 80% 0.00in /  0mm
14:40 60.9 °F /  16.1 °C 54.3 °F /  12.4 °C 29.91in /  1012.8hPa ENE 5.0mph /  8km/h 9.0mph /  14.5km/h 79% 0.00in /  0mm
14:45 61.0 °F /  16.1 °C 54.4 °F /  12.4 °C 29.91in /  1012.8hPa NNE 5.0mph /  8km/h 7.0mph /  11.3km/h 79% 0.00in /  0mm
14:50 61.1 °F /  16.2 °C 54.5 °F /  12.5 °C 29.91in /  1012.8hPa NE 3.0mph /  4.8km/h 10.0mph /  16.1km/h 79% 0.00in /  0mm
14:55 61.5 °F /  16.4 °C 54.9 °F /  12.7 °C 29.91in /  1012.8hPa East 2.0mph /  3.2km/h 8.0mph /  12.9km/h 79% 0.00in /  0mm
15:00 61.6 °F /  16.4 °C 55.0 °F /  12.8 °C 29.90in /  1012.4hPa NE 6.0mph /  9.7km/h 6.0mph /  9.7km/h 79% 0.00in /  0mm
15:05 61.6 °F /  16.4 °C 54.7 °F /  12.6 °C 29.90in /  1012.4hPa ENE 5.0mph /  8km/h 10.0mph /  16.1km/h 78% 0.00in /  0mm
15:10 62.2 °F /  16.8 °C 55.3 °F /  12.9 °C 29.90in /  1012.4hPa NE 3.0mph /  4.8km/h 8.0mph /  12.9km/h 78% 0.00in /  0mm
15:15 62.7 °F /  17.1 °C 55.4 °F /  13 °C 29.90in /  1012.4hPa ENE 4.0mph /  6.4km/h 8.0mph /  12.9km/h 77% 0.00in /  0mm
15:20 62.4 °F /  16.9 °C 54.7 °F /  12.6 °C 29.89in /  1012.1hPa ENE 4.0mph /  6.4km/h 8.0mph /  12.9km/h 76% 0.00in /  0mm
15:25 62.3 °F /  16.8 °C 54.6 °F /  12.6 °C 29.89in /  1012.1hPa ENE 4.0mph /  6.4km/h 9.0mph /  14.5km/h 76% 0.00in /  0mm
15:30 62.4 °F /  16.9 °C 54.7 °F /  12.6 °C 29.89in /  1012.1hPa ENE 4.0mph /  6.4km/h 9.0mph /  14.5km/h 76% 0.00in /  0mm
15:35 62.5 °F /  16.9 °C 55.2 °F /  12.9 °C 29.89in /  1012.1hPa ENE 4.0mph /  6.4km/h 8.0mph /  12.9km/h 77% 0.00in /  0mm
15:40 62.8 °F /  17.1 °C 55.1 °F /  12.8 °C 29.89in /  1012.1hPa Calm   9.0mph /  14.5km/h 76% 0.00in /  0mm
15:45 62.9 °F /  17.2 °C 55.2 °F /  12.9 °C 29.89in /  1012.1hPa ENE 3.0mph /  4.8km/h 9.0mph /  14.5km/h 76% 0.00in /  0mm
15:50 62.7 °F /  17.1 °C 55.0 °F /  12.8 °C 29.89in /  1012.1hPa NE 4.0mph /  6.4km/h 8.0mph /  12.9km/h 76% 0.00in /  0mm
15:55 62.7 °F /  17.1 °C 54.7 °F /  12.6 °C 29.89in /  1012.1hPa NE 4.0mph /  6.4km/h 9.0mph /  14.5km/h 75% 0.00in /  0mm
16:00 62.7 °F /  17.1 °C 54.7 °F /  12.6 °C 29.89in /  1012.1hPa East 5.0mph /  8km/h 8.0mph /  12.9km/h 75% 0.00in /  0mm
16:05 62.7 °F /  17.1 °C 54.7 °F /  12.6 °C 29.89in /  1012.1hPa ENE 4.0mph /  6.4km/h 7.0mph /  11.3km/h 75% 0.00in /  0mm
16:10 62.7 °F /  17.1 °C 54.7 °F /  12.6 °C 29.89in /  1012.1hPa ENE 4.0mph /  6.4km/h 8.0mph /  12.9km/h 75% 0.00in /  0mm
16:15 62.6 °F /  17 °C 54.6 °F /  12.6 °C 29.88in /  1011.7hPa NE 4.0mph /  6.4km/h 9.0mph /  14.5km/h 75% 0.00in /  0mm
16:20 62.6 °F /  17 °C 54.9 °F /  12.7 °C 29.88in /  1011.7hPa NE 5.0mph /  8km/h 9.0mph /  14.5km/h 76% 0.00in /  0mm
16:25 62.5 °F /  16.9 °C 54.5 °F /  12.5 °C 29.88in /  1011.7hPa NE 5.0mph /  8km/h 10.0mph /  16.1km/h 75% 0.00in /  0mm
16:30 62.5 °F /  16.9 °C 54.8 °F /  12.7 °C 29.88in /  1011.7hPa NNE 6.0mph /  9.7km/h 7.0mph /  11.3km/h 76% 0.00in /  0mm
16:35 62.6 °F /  17 °C 54.9 °F /  12.7 °C 29.88in /  1011.7hPa ENE 4.0mph /  6.4km/h 9.0mph /  14.5km/h 76% 0.00in /  0mm
16:40 62.5 °F /  16.9 °C 54.8 °F /  12.7 °C 29.88in /  1011.7hPa NE 4.0mph /  6.4km/h 8.0mph /  12.9km/h 76% 0.00in /  0mm
16:45 62.5 °F /  16.9 °C 54.8 °F /  12.7 °C 29.88in /  1011.7hPa NE 4.0mph /  6.4km/h 8.0mph /  12.9km/h 76% 0.00in /  0mm
16:50 62.7 °F /  17.1 °C 55.0 °F /  12.8 °C 29.88in /  1011.7hPa NE 5.0mph /  8km/h 10.0mph /  16.1km/h 76% 0.00in /  0mm
16:55 62.6 °F /  17 °C 54.6 °F /  12.6 °C 29.88in /  1011.7hPa NE 5.0mph /  8km/h 10.0mph /  16.1km/h 75% 0.00in /  0mm
17:00 62.7 °F /  17.1 °C 54.7 °F /  12.6 °C 29.88in /  1011.7hPa NE 6.0mph /  9.7km/h 11.0mph /  17.7km/h 75% 0.00in /  0mm
17:05 62.9 °F /  17.2 °C 54.5 °F /  12.5 °C 29.88in /  1011.7hPa NE 2.0mph /  3.2km/h 11.0mph /  17.7km/h 74% 0.00in /  0mm
17:10 63.1 °F /  17.3 °C 54.7 °F /  12.6 °C 29.88in /  1011.7hPa NE 2.0mph /  3.2km/h 10.0mph /  16.1km/h 74% 0.00in /  0mm
17:15 63.3 °F /  17.4 °C 54.9 °F /  12.7 °C 29.88in /  1011.7hPa NE 5.0mph /  8km/h 10.0mph /  16.1km/h 74% 0.00in /  0mm
17:20 63.2 °F /  17.3 °C 54.4 °F /  12.4 °C 29.88in /  1011.7hPa NE 5.0mph /  8km/h 11.0mph /  17.7km/h 73% 0.00in /  0mm
17:25 63.1 °F /  17.3 °C 54.7 °F /  12.6 °C 29.88in /  1011.7hPa NE 7.0mph /  11.3km/h 10.0mph /  16.1km/h 74% 0.00in /  0mm
17:30 63.1 °F /  17.3 °C 54.7 °F /  12.6 °C 29.88in /  1011.7hPa NE 4.0mph /  6.4km/h 10.0mph /  16.1km/h 74% 0.00in /  0mm
17:35 63.2 °F /  17.3 °C 54.4 °F /  12.4 °C 29.87in /  1011.4hPa NE 3.0mph /  4.8km/h 9.0mph /  14.5km/h 73% 0.00in /  0mm
17:40 63.5 °F /  17.5 °C 54.7 °F /  12.6 °C 29.87in /  1011.4hPa NE 4.0mph /  6.4km/h 10.0mph /  16.1km/h 73% 0.00in /  0mm
17:45 63.6 °F /  17.6 °C 54.8 °F /  12.7 °C 29.87in /  1011.4hPa NE 6.0mph /  9.7km/h 13.0mph /  20.9km/h 73% 0.00in /  0mm
17:50 63.6 °F /  17.6 °C 54.8 °F /  12.7 °C 29.87in /  1011.4hPa ENE 6.0mph /  9.7km/h 13.0mph /  20.9km/h 73% 0.00in /  0mm
17:55 63.7 °F /  17.6 °C 54.9 °F /  12.7 °C 29.86in /  1011.1hPa ENE 6.0mph /  9.7km/h 12.0mph /  19.3km/h 73% 0.00in /  0mm
18:00 64.1 °F /  17.8 °C 54.9 °F /  12.7 °C 29.86in /  1011.1hPa ENE 6.0mph /  9.7km/h 12.0mph /  19.3km/h 72% 0.00in /  0mm
18:05 64.6 °F /  18.1 °C 55.4 °F /  13 °C 29.86in /  1011.1hPa ENE 6.0mph /  9.7km/h 12.0mph /  19.3km/h 72% 0.00in /  0mm
18:10 65.1 °F /  18.4 °C 55.8 °F /  13.2 °C 29.86in /  1011.1hPa ENE 7.0mph /  11.3km/h 13.0mph /  20.9km/h 72% 0.00in /  0mm
18:15 65.3 °F /  18.5 °C 55.3 °F /  12.9 °C 29.85in /  1010.7hPa ENE 10.0mph /  16.1km/h 10.0mph /  16.1km/h 70% 0.00in /  0mm
18:20 65.2 °F /  18.4 °C 55.2 °F /  12.9 °C 29.85in /  1010.7hPa NE 6.0mph /  9.7km/h 13.0mph /  20.9km/h 70% 0.00in /  0mm
18:25 65.3 °F /  18.5 °C 55.3 °F /  12.9 °C 29.85in /  1010.7hPa ENE 3.0mph /  4.8km/h 15.0mph /  24.1km/h 70% 0.00in /  0mm
18:30 65.1 °F /  18.4 °C 55.1 °F /  12.8 °C 29.85in /  1010.7hPa NE 5.0mph /  8km/h 13.0mph /  20.9km/h 70% 0.00in /  0mm
18:35 64.7 °F /  18.2 °C 55.1 °F /  12.8 °C 29.84in /  1010.4hPa ESE 5.0mph /  8km/h 14.0mph /  22.5km/h 71% 0.00in /  0mm
18:40 64.4 °F /  18 °C 54.8 °F /  12.7 °C 29.85in /  1010.7hPa NE 6.0mph /  9.7km/h 12.0mph /  19.3km/h 71% 0.00in /  0mm
18:45 64.2 °F /  17.9 °C 54.6 °F /  12.6 °C 29.85in /  1010.7hPa NE 5.0mph /  8km/h 12.0mph /  19.3km/h 71% 0.00in /  0mm
18:50 64.3 °F /  17.9 °C 54.7 °F /  12.6 °C 29.84in /  1010.4hPa NE 6.0mph /  9.7km/h 12.0mph /  19.3km/h 71% 0.00in /  0mm
18:55 64.2 °F /  17.9 °C 54.6 °F /  12.6 °C 29.84in /  1010.4hPa NE 6.0mph /  9.7km/h 12.0mph /  19.3km/h 71% 0.00in /  0mm
19:00 64.2 °F /  17.9 °C 55.0 °F /  12.8 °C 29.84in /  1010.4hPa ENE 5.0mph /  8km/h 10.0mph /  16.1km/h 72% 0.00in /  0mm
19:05 64.2 °F /  17.9 °C 54.6 °F /  12.6 °C 29.84in /  1010.4hPa ENE 5.0mph /  8km/h 9.0mph /  14.5km/h 71% 0.00in /  0mm
19:10 64.1 °F /  17.8 °C 54.5 °F /  12.5 °C 29.84in /  1010.4hPa ENE 5.0mph /  8km/h 9.0mph /  14.5km/h 71% 0.00in /  0mm
19:15 63.9 °F /  17.7 °C 54.3 °F /  12.4 °C 29.84in /  1010.4hPa ENE 5.0mph /  8km/h 10.0mph /  16.1km/h 71% 0.00in /  0mm
19:20 63.8 °F /  17.7 °C 54.2 °F /  12.3 °C 29.84in /  1010.4hPa ENE 5.0mph /  8km/h 10.0mph /  16.1km/h 71% 0.00in /  0mm
19:25 63.6 °F /  17.6 °C 54.0 °F /  12.2 °C 29.84in /  1010.4hPa ENE 4.0mph /  6.4km/h 8.0mph /  12.9km/h 71% 0.00in /  0mm
19:30 63.5 °F /  17.5 °C 53.9 °F /  12.2 °C 29.84in /  1010.4hPa East 2.0mph /  3.2km/h 8.0mph /  12.9km/h 71% 0.00in /  0mm
19:35 63.4 °F /  17.4 °C 54.2 °F /  12.3 °C 29.84in /  1010.4hPa East 5.0mph /  8km/h 9.0mph /  14.5km/h 72% 0.00in /  0mm
19:40 63.2 °F /  17.3 °C 54.0 °F /  12.2 °C 29.84in /  1010.4hPa ENE 3.0mph /  4.8km/h 7.0mph /  11.3km/h 72% 0.00in /  0mm
19:45 63.1 °F /  17.3 °C 53.9 °F /  12.2 °C 29.84in /  1010.4hPa ENE 3.0mph /  4.8km/h 8.0mph /  12.9km/h 72% 0.00in /  0mm
19:50 63.2 °F /  17.3 °C 54.0 °F /  12.2 °C 29.84in /  1010.4hPa ENE 3.0mph /  4.8km/h 8.0mph /  12.9km/h 72% 0.00in /  0mm
19:55 63.2 °F /  17.3 °C 53.6 °F /  12 °C 29.84in /  1010.4hPa East 3.0mph /  4.8km/h 5.0mph /  8km/h 71% 0.00in /  0mm
20:00 63.1 °F /  17.3 °C 53.5 °F /  11.9 °C 29.83in /  1010hPa East 3.0mph /  4.8km/h 6.0mph /  9.7km/h 71% 0.00in /  0mm
20:05 62.9 °F /  17.2 °C 53.7 °F /  12.1 °C 29.83in /  1010hPa ESE 1.0mph /  1.6km/h 5.0mph /  8km/h 72% 0.00in /  0mm
20:10 62.9 °F /  17.2 °C 53.7 °F /  12.1 °C 29.83in /  1010hPa East 1.0mph /  1.6km/h 6.0mph /  9.7km/h 72% 0.00in /  0mm
20:15 63.1 °F /  17.3 °C 53.2 °F /  11.8 °C 29.83in /  1010hPa SSE 5.0mph /  8km/h 11.0mph /  17.7km/h 70% 0.00in /  0mm
20:20 63.3 °F /  17.4 °C 53.0 °F /  11.7 °C 29.83in /  1010hPa ESE 4.0mph /  6.4km/h 11.0mph /  17.7km/h 69% 0.00in /  0mm
20:25 63.2 °F /  17.3 °C 52.9 °F /  11.6 °C 29.83in /  1010hPa SE 4.0mph /  6.4km/h 8.0mph /  12.9km/h 69% 0.00in /  0mm
20:30 63.1 °F /  17.3 °C 52.8 °F /  11.6 °C 29.84in /  1010.4hPa ESE 2.0mph /  3.2km/h 8.0mph /  12.9km/h 69% 0.00in /  0mm
20:35 63.1 °F /  17.3 °C 52.8 °F /  11.6 °C 29.84in /  1010.4hPa ESE 2.0mph /  3.2km/h 6.0mph /  9.7km/h 69% 0.00in /  0mm
20:40 63.0 °F /  17.2 °C 52.7 °F /  11.5 °C 29.84in /  1010.4hPa ESE 2.0mph /  3.2km/h 8.0mph /  12.9km/h 69% 0.00in /  0mm
20:45 62.9 °F /  17.2 °C 52.6 °F /  11.4 °C 29.84in /  1010.4hPa East 5.0mph /  8km/h 13.0mph /  20.9km/h 69% 0.00in /  0mm
20:50 62.9 °F /  17.2 °C 52.2 °F /  11.2 °C 29.84in /  1010.4hPa ESE 5.0mph /  8km/h 13.0mph /  20.9km/h 68% 0.00in /  0mm
20:55 62.9 °F /  17.2 °C 52.2 °F /  11.2 °C 29.83in /  1010hPa ESE 5.0mph /  8km/h 9.0mph /  14.5km/h 68% 0.00in /  0mm
21:00 62.8 °F /  17.1 °C 52.1 °F /  11.2 °C 29.84in /  1010.4hPa SE 6.0mph /  9.7km/h 12.0mph /  19.3km/h 68% 0.00in /  0mm
21:05 62.8 °F /  17.1 °C 52.1 °F /  11.2 °C 29.84in /  1010.4hPa East 6.0mph /  9.7km/h 11.0mph /  17.7km/h 68% 0.00in /  0mm
21:10 62.7 °F /  17.1 °C 52.0 °F /  11.1 °C 29.84in /  1010.4hPa SSE 2.0mph /  3.2km/h 11.0mph /  17.7km/h 68% 0.00in /  0mm
21:15 62.6 °F /  17 °C 51.9 °F /  11.1 °C 29.85in /  1010.7hPa SSE 5.0mph /  8km/h 8.0mph /  12.9km/h 68% 0.00in /  0mm
21:20 62.6 °F /  17 °C 51.9 °F /  11.1 °C 29.85in /  1010.7hPa SE 4.0mph /  6.4km/h 9.0mph /  14.5km/h 68% 0.00in /  0mm
21:25 62.5 °F /  16.9 °C 52.2 °F /  11.2 °C 29.85in /  1010.7hPa SE 4.0mph /  6.4km/h 13.0mph /  20.9km/h 69% 0.00in /  0mm
21:30 62.4 °F /  16.9 °C 52.1 °F /  11.2 °C 29.85in /  1010.7hPa SSE 4.0mph /  6.4km/h 13.0mph /  20.9km/h 69% 0.00in /  0mm
21:35 62.3 °F /  16.8 °C 52.0 °F /  11.1 °C 29.85in /  1010.7hPa SSE 5.0mph /  8km/h 12.0mph /  19.3km/h 69% 0.00in /  0mm
21:40 62.2 °F /  16.8 °C 52.3 °F /  11.3 °C 29.85in /  1010.7hPa SSE 6.0mph /  9.7km/h 10.0mph /  16.1km/h 70% 0.00in /  0mm
21:45 62.1 °F /  16.7 °C 52.2 °F /  11.2 °C 29.85in /  1010.7hPa SSE 1.0mph /  1.6km/h 8.0mph /  12.9km/h 70% 0.00in /  0mm
21:50 61.8 °F /  16.6 °C 52.3 °F /  11.3 °C 29.85in /  1010.7hPa SSE 7.0mph /  11.3km/h 11.0mph /  17.7km/h 71% 0.00in /  0mm
21:55 61.7 °F /  16.5 °C 52.2 °F /  11.2 °C 29.85in /  1010.7hPa SE 3.0mph /  4.8km/h 10.0mph /  16.1km/h 71% 0.00in /  0mm
22:00 61.4 °F /  16.3 °C 52.3 °F /  11.3 °C 29.85in /  1010.7hPa South 6.0mph /  9.7km/h 6.0mph /  9.7km/h 72% 0.00in /  0mm
22:05 61.2 °F /  16.2 °C 52.5 °F /  11.4 °C 29.85in /  1010.7hPa SSE 4.0mph /  6.4km/h 8.0mph /  12.9km/h 73% 0.00in /  0mm
22:10 60.8 °F /  16 °C 52.8 °F /  11.6 °C 29.85in /  1010.7hPa SE 2.0mph /  3.2km/h 7.0mph /  11.3km/h 75% 0.00in /  0mm
22:15 60.5 °F /  15.8 °C 52.9 °F /  11.6 °C 29.85in /  1010.7hPa SSE 1.0mph /  1.6km/h 7.0mph /  11.3km/h 76% 0.00in /  0mm
22:20 60.3 °F /  15.7 °C 52.7 °F /  11.5 °C 29.85in /  1010.7hPa SSE 2.0mph /  3.2km/h 4.0mph /  6.4km/h 76% 0.00in /  0mm
22:25 60.2 °F /  15.7 °C 53.0 °F /  11.7 °C 29.85in /  1010.7hPa SE 2.0mph /  3.2km/h 6.0mph /  9.7km/h 77% 0.00in /  0mm
22:30 60.0 °F /  15.6 °C 52.8 °F /  11.6 °C 29.85in /  1010.7hPa SE 2.0mph /  3.2km/h 6.0mph /  9.7km/h 77% 0.00in /  0mm
22:35 59.8 °F /  15.4 °C 52.9 °F /  11.6 °C 29.84in /  1010.4hPa SE 3.0mph /  4.8km/h 8.0mph /  12.9km/h 78% 0.00in /  0mm
22:40 59.7 °F /  15.4 °C 52.8 °F /  11.6 °C 29.84in /  1010.4hPa SE 3.0mph /  4.8km/h 8.0mph /  12.9km/h 78% 0.00in /  0mm
22:45 59.5 °F /  15.3 °C 52.6 °F /  11.4 °C 29.84in /  1010.4hPa SE 3.0mph /  4.8km/h 7.0mph /  11.3km/h 78% 0.00in /  0mm
22:50 59.4 °F /  15.2 °C 52.5 °F /  11.4 °C 29.84in /  1010.4hPa SE 1.0mph /  1.6km/h 6.0mph /  9.7km/h 78% 0.00in /  0mm
22:55 59.3 °F /  15.2 °C 52.8 °F /  11.6 °C 29.84in /  1010.4hPa SE 2.0mph /  3.2km/h 6.0mph /  9.7km/h 79% 0.00in /  0mm
23:00 59.2 °F /  15.1 °C 52.7 °F /  11.5 °C 29.84in /  1010.4hPa SE 1.0mph /  1.6km/h 5.0mph /  8km/h 79% 0.00in /  0mm
23:05 59.1 °F /  15.1 °C 52.6 °F /  11.4 °C 29.84in /  1010.4hPa SE 2.0mph /  3.2km/h 3.0mph /  4.8km/h 79% 0.00in /  0mm
23:10 59.1 °F /  15.1 °C 52.6 °F /  11.4 °C 29.83in /  1010hPa SE 1.0mph /  1.6km/h 4.0mph /  6.4km/h 79% 0.00in /  0mm
23:20 59.1 °F /  15.1 °C 52.6 °F /  11.4 °C 29.83in /  1010hPa SE 2.0mph /  3.2km/h 4.0mph /  6.4km/h 79% 0.00in /  0mm
23:25 59.1 °F /  15.1 °C 52.6 °F /  11.4 °C 29.83in /  1010hPa SE 1.0mph /  1.6km/h 4.0mph /  6.4km/h 79% 0.00in /  0mm
23:30 59.0 °F /  15 °C 52.8 °F /  11.6 °C 29.83in /  1010hPa SE 1.0mph /  1.6km/h 3.0mph /  4.8km/h 80% 0.00in /  0mm
23:35 59.0 °F /  15 °C 52.8 °F /  11.6 °C 29.83in /  1010hPa Calm   3.0mph /  4.8km/h 80% 0.00in /  0mm
23:40 58.8 °F /  14.9 °C 52.6 °F /  11.4 °C 29.83in /  1010hPa Calm     80% 0.00in /  0mm
23:45 58.7 °F /  14.8 °C 52.5 °F /  11.4 °C 29.83in /  1010hPa Calm     80% 0.00in /  0mm
23:50 58.7 °F /  14.8 °C 52.5 °F /  11.4 °C 29.83in /  1010hPa Calm     80% 0.00in /  0mm
23:55 58.5 °F /  14.7 °C 52.7 °F /  11.5 °C 29.83in /  1010hPa Calm     81% 0.00in /  0mm
Buffalo, New York, USA
Compliments of Weather Underground - 2.25 mb